sensor_id;sensor_type;location;lat;lon;timestamp;pressure;altitude;pressure_sealevel;temperature;humidity
6224;BME280;3145;42.726;23.342;2023-08-07T00:01:18;71251.72;;;-142.70;66.77
6224;BME280;3145;42.726;23.342;2023-08-07T00:03:45;71259.75;;;-142.70;66.92
6224;BME280;3145;42.726;23.342;2023-08-07T00:06:12;71263.78;;;-142.70;67.27
6224;BME280;3145;42.726;23.342;2023-08-07T00:08:42;71263.78;;;-142.70;67.17
6224;BME280;3145;42.726;23.342;2023-08-07T00:11:09;71263.78;;;-142.70;67.52
6224;BME280;3145;42.726;23.342;2023-08-07T00:13:36;71275.88;;;-142.70;67.83
6224;BME280;3145;42.726;23.342;2023-08-07T00:16:03;71287.97;;;-142.70;68.01
6224;BME280;3145;42.726;23.342;2023-08-07T00:18:30;71287.97;;;-142.70;68.14
6224;BME280;3145;42.726;23.342;2023-08-07T00:20:57;71296.00;;;-142.70;68.22
6224;BME280;3145;42.726;23.342;2023-08-07T00:23:23;71304.06;;;-142.70;68.43
6224;BME280;3145;42.726;23.342;2023-08-07T00:25:51;71314.13;;;-142.70;68.94
6224;BME280;3145;42.726;23.342;2023-08-07T00:28:18;71312.13;;;-142.70;69.24
6224;BME280;3145;42.726;23.342;2023-08-07T00:30:45;71328.22;;;-142.70;69.60
6224;BME280;3145;42.726;23.342;2023-08-07T00:33:11;71336.28;;;-142.70;70.00
6224;BME280;3145;42.726;23.342;2023-08-07T00:35:38;71332.25;;;-142.70;70.28
6224;BME280;3145;42.726;23.342;2023-08-07T00:38:05;71328.22;;;-142.70;70.47
6224;BME280;3145;42.726;23.342;2023-08-07T00:40:36;71320.19;;;-142.70;70.30
6224;BME280;3145;42.726;23.342;2023-08-07T00:43:05;71324.19;;;-142.70;70.28
6224;BME280;3145;42.726;23.342;2023-08-07T00:45:35;71322.19;;;-142.70;70.40
6224;BME280;3145;42.726;23.342;2023-08-07T00:48:04;71328.22;;;-142.70;70.13
6224;BME280;3145;42.726;23.342;2023-08-07T00:50:31;71324.19;;;-142.70;70.41
6224;BME280;3145;42.726;23.342;2023-08-07T00:52:58;71324.19;;;-142.70;70.09
6224;BME280;3145;42.726;23.342;2023-08-07T00:55:25;71332.25;;;-142.70;70.30
6224;BME280;3145;42.726;23.342;2023-08-07T00:57:52;71344.34;;;-142.70;70.61
6224;BME280;3145;42.726;23.342;2023-08-07T01:00:20;71356.44;;;-142.70;70.97
6224;BME280;3145;42.726;23.342;2023-08-07T01:02:48;71356.44;;;-142.70;70.94
6224;BME280;3145;42.726;23.342;2023-08-07T01:05:16;71362.47;;;-142.70;70.87
6224;BME280;3145;42.726;23.342;2023-08-07T01:07:45;71354.41;;;-142.70;70.86
6224;BME280;3145;42.726;23.342;2023-08-07T01:10:13;71362.47;;;-142.70;70.71
6224;BME280;3145;42.726;23.342;2023-08-07T01:12:47;71368.50;;;-142.70;70.90
6224;BME280;3145;42.726;23.342;2023-08-07T01:15:16;71370.53;;;-142.70;70.99
6224;BME280;3145;42.726;23.342;2023-08-07T01:17:48;71362.47;;;-142.70;70.93
6224;BME280;3145;42.726;23.342;2023-08-07T01:20:16;71364.47;;;-142.70;70.49
6224;BME280;3145;42.726;23.342;2023-08-07T01:22:44;71372.53;;;-142.70;70.91
6224;BME280;3145;42.726;23.342;2023-08-07T01:25:11;71366.50;;;-142.70;70.60
6224;BME280;3145;42.726;23.342;2023-08-07T01:27:44;71362.47;;;-142.70;70.39
6224;BME280;3145;42.726;23.342;2023-08-07T01:30:17;71364.47;;;-142.70;70.33
6224;BME280;3145;42.726;23.342;2023-08-07T01:32:52;71364.47;;;-142.70;70.02
6224;BME280;3145;42.726;23.342;2023-08-07T01:35:23;71366.50;;;-142.70;70.44
6224;BME280;3145;42.726;23.342;2023-08-07T01:37:55;71358.44;;;-142.70;70.32
6224;BME280;3145;42.726;23.342;2023-08-07T01:40:23;71356.44;;;-142.70;70.40
6224;BME280;3145;42.726;23.342;2023-08-07T01:42:50;71362.47;;;-142.70;70.70
6224;BME280;3145;42.726;23.342;2023-08-07T01:45:22;71360.44;;;-142.70;70.53
6224;BME280;3145;42.726;23.342;2023-08-07T01:47:49;71356.44;;;-142.70;70.98
6224;BME280;3145;42.726;23.342;2023-08-07T01:50:17;71358.44;;;-142.70;70.65
6224;BME280;3145;42.726;23.342;2023-08-07T01:52:44;71360.44;;;-142.70;70.85
6224;BME280;3145;42.726;23.342;2023-08-07T01:55:13;71368.50;;;-142.70;70.47
6224;BME280;3145;42.726;23.342;2023-08-07T01:57:40;71368.50;;;-142.70;70.74
6224;BME280;3145;42.726;23.342;2023-08-07T02:00:08;71374.56;;;-142.70;70.58
6224;BME280;3145;42.726;23.342;2023-08-07T02:02:35;71372.53;;;-142.70;70.63
6224;BME280;3145;42.726;23.342;2023-08-07T02:05:02;71384.63;;;-142.70;71.05
6224;BME280;3145;42.726;23.342;2023-08-07T02:07:29;71384.63;;;-142.70;71.08
6224;BME280;3145;42.726;23.342;2023-08-07T02:09:56;71392.69;;;-142.70;70.96
6224;BME280;3145;42.726;23.342;2023-08-07T02:12:24;71412.81;;;-142.70;71.33
6224;BME280;3145;42.726;23.342;2023-08-07T02:14:52;71414.81;;;-142.70;71.40
6224;BME280;3145;42.726;23.342;2023-08-07T02:17:20;71416.84;;;-142.70;71.18
6224;BME280;3145;42.726;23.342;2023-08-07T02:19:47;71420.88;;;-142.70;71.27
6224;BME280;3145;42.726;23.342;2023-08-07T02:22:14;71424.91;;;-142.70;71.30
6224;BME280;3145;42.726;23.342;2023-08-07T02:24:40;71424.91;;;-142.70;71.51
6224;BME280;3145;42.726;23.342;2023-08-07T02:27:07;71424.91;;;-142.70;71.28
6224;BME280;3145;42.726;23.342;2023-08-07T02:29:35;71432.94;;;-142.70;71.53
6224;BME280;3145;42.726;23.342;2023-08-07T02:32:02;71441.00;;;-142.70;71.64
6224;BME280;3145;42.726;23.342;2023-08-07T02:34:30;71436.97;;;-142.70;71.66
6224;BME280;3145;42.726;23.342;2023-08-07T02:36:56;71436.97;;;-142.70;71.83
6224;BME280;3145;42.726;23.342;2023-08-07T02:39:23;71457.13;;;-142.70;71.95
6224;BME280;3145;42.726;23.342;2023-08-07T02:41:50;71451.06;;;-142.70;71.88
6224;BME280;3145;42.726;23.342;2023-08-07T02:44:16;71457.13;;;-142.70;71.65
6224;BME280;3145;42.726;23.342;2023-08-07T02:46:45;71467.19;;;-142.70;71.71
6224;BME280;3145;42.726;23.342;2023-08-07T02:49:12;71477.25;;;-142.70;72.34
6224;BME280;3145;42.726;23.342;2023-08-07T02:51:38;71485.31;;;-142.70;72.56
6224;BME280;3145;42.726;23.342;2023-08-07T02:54:05;71495.38;;;-142.70;72.47
6224;BME280;3145;42.726;23.342;2023-08-07T02:56:32;71495.38;;;-142.70;72.64
6224;BME280;3145;42.726;23.342;2023-08-07T02:58:59;71493.38;;;-142.70;73.02
6224;BME280;3145;42.726;23.342;2023-08-07T03:01:27;71515.53;;;-142.70;72.83
6224;BME280;3145;42.726;23.342;2023-08-07T03:03:55;71535.66;;;-142.70;73.08
6224;BME280;3145;42.726;23.342;2023-08-07T03:06:23;71537.66;;;-142.70;73.71
6224;BME280;3145;42.726;23.342;2023-08-07T03:08:50;71533.66;;;-142.70;74.15
6224;BME280;3145;42.726;23.342;2023-08-07T03:11:16;71537.66;;;-142.70;74.28
6224;BME280;3145;42.726;23.342;2023-08-07T03:13:43;71535.66;;;-142.70;74.34
6224;BME280;3145;42.726;23.342;2023-08-07T03:16:10;71539.69;;;-142.70;74.63
6224;BME280;3145;42.726;23.342;2023-08-07T03:18:37;71537.66;;;-142.70;74.73
6224;BME280;3145;42.726;23.342;2023-08-07T03:21:05;71541.69;;;-142.70;74.82
6224;BME280;3145;42.726;23.342;2023-08-07T03:23:32;71543.72;;;-142.70;75.06
6224;BME280;3145;42.726;23.342;2023-08-07T03:26:03;71537.66;;;-142.70;74.98
6224;BME280;3145;42.726;23.342;2023-08-07T03:28:29;71527.59;;;-142.70;74.90
6224;BME280;3145;42.726;23.342;2023-08-07T03:30:56;71531.63;;;-142.70;74.80
6224;BME280;3145;42.726;23.342;2023-08-07T03:33:23;71525.59;;;-142.70;75.00
6224;BME280;3145;42.726;23.342;2023-08-07T03:35:50;71527.59;;;-142.70;74.87
6224;BME280;3145;42.726;23.342;2023-08-07T03:38:18;71517.53;;;-142.70;74.88
6224;BME280;3145;42.726;23.342;2023-08-07T03:40:45;71513.50;;;-142.70;74.45
6224;BME280;3145;42.726;23.342;2023-08-07T03:43:11;71515.53;;;-142.70;74.37
6224;BME280;3145;42.726;23.342;2023-08-07T03:45:38;71501.44;;;-142.70;74.13
6224;BME280;3145;42.726;23.342;2023-08-07T03:48:05;71489.34;;;-142.70;74.30
6224;BME280;3145;42.726;23.342;2023-08-07T03:50:32;71453.09;;;-142.70;73.72
6224;BME280;3145;42.726;23.342;2023-08-07T03:53:02;71416.84;;;-142.70;72.31
6224;BME280;3145;42.726;23.342;2023-08-07T03:55:30;71384.63;;;-142.70;71.36
6224;BME280;3145;42.726;23.342;2023-08-07T03:57:57;71384.63;;;-142.70;70.08
6224;BME280;3145;42.726;23.342;2023-08-07T04:00:24;71380.59;;;-142.70;69.50
6224;BME280;3145;42.726;23.342;2023-08-07T04:02:50;71396.69;;;-142.70;69.52
6224;BME280;3145;42.726;23.342;2023-08-07T04:05:17;71398.72;;;-142.70;69.36
6224;BME280;3145;42.726;23.342;2023-08-07T04:07:44;71362.47;;;-142.70;68.98
6224;BME280;3145;42.726;23.342;2023-08-07T04:10:10;71314.13;;;-142.70;67.81
6224;BME280;3145;42.726;23.342;2023-08-07T04:12:39;71267.81;;;-142.70;65.39
6224;BME280;3145;42.726;23.342;2023-08-07T04:15:06;71227.53;;;-142.70;63.06
6224;BME280;3145;42.726;23.342;2023-08-07T04:17:34;71173.16;;;-142.70;61.52
6224;BME280;3145;42.726;23.342;2023-08-07T04:20:01;71124.84;;;-142.70;59.41
6224;BME280;3145;42.726;23.342;2023-08-07T04:22:29;71086.59;;;-142.70;56.96
6224;BME280;3145;42.726;23.342;2023-08-07T04:24:55;71048.31;;;-142.70;54.69
6224;BME280;3145;42.726;23.342;2023-08-07T04:27:22;71004.03;;;-142.70;52.94
6224;BME280;3145;42.726;23.342;2023-08-07T04:29:50;70977.84;;;-142.70;51.98
6224;BME280;3145;42.726;23.342;2023-08-07T04:32:17;70961.75;;;-142.70;49.37
6224;BME280;3145;42.726;23.342;2023-08-07T04:34:43;70961.75;;;-142.70;48.40
6224;BME280;3145;42.726;23.342;2023-08-07T04:37:10;70993.97;;;-142.70;48.57
6224;BME280;3145;42.726;23.342;2023-08-07T04:39:37;71022.16;;;-142.70;49.70
6224;BME280;3145;42.726;23.342;2023-08-07T04:42:04;71042.28;;;-142.70;49.99
6224;BME280;3145;42.726;23.342;2023-08-07T04:44:31;71040.28;;;-142.70;50.31
6224;BME280;3145;42.726;23.342;2023-08-07T04:46:59;71020.13;;;-142.70;50.31
6224;BME280;3145;42.726;23.342;2023-08-07T04:49:26;70967.78;;;-142.70;49.26
6224;BME280;3145;42.726;23.342;2023-08-07T04:51:53;70925.50;;;-142.70;48.34
6224;BME280;3145;42.726;23.342;2023-08-07T04:54:20;70879.19;;;-142.70;47.59
6224;BME280;3145;42.726;23.342;2023-08-07T04:56:46;70848.97;;;-142.70;46.14
6224;BME280;3145;42.726;23.342;2023-08-07T04:59:13;70808.72;;;-142.70;45.13
6224;BME280;3145;42.726;23.342;2023-08-07T05:01:40;70766.44;;;-142.70;44.34
6224;BME280;3145;42.726;23.342;2023-08-07T05:04:08;70736.22;;;-142.70;42.85
6224;BME280;3145;42.726;23.342;2023-08-07T05:06:35;70730.19;;;-142.70;41.79
6224;BME280;3145;42.726;23.342;2023-08-07T05:09:02;70708.03;;;-142.70;41.58
6224;BME280;3145;42.726;23.342;2023-08-07T05:11:29;70695.97;;;-142.70;40.95
6224;BME280;3145;42.726;23.342;2023-08-07T05:13:56;70659.72;;;-142.70;41.33
6224;BME280;3145;42.726;23.342;2023-08-07T05:16:22;70647.63;;;-142.70;40.32
6224;BME280;3145;42.726;23.342;2023-08-07T05:18:49;70647.63;;;-142.70;40.29
6224;BME280;3145;42.726;23.342;2023-08-07T05:21:17;70625.50;;;-142.70;39.70
6224;BME280;3145;42.726;23.342;2023-08-07T05:23:44;70641.59;;;-142.70;39.48
6224;BME280;3145;42.726;23.342;2023-08-07T05:26:10;70619.44;;;-142.70;39.13
6224;BME280;3145;42.726;23.342;2023-08-07T05:28:37;70617.44;;;-142.70;39.13
6224;BME280;3145;42.726;23.342;2023-08-07T05:31:04;70661.72;;;-142.70;39.64
6224;BME280;3145;42.726;23.342;2023-08-07T05:33:30;70629.50;;;-142.70;39.05
6224;BME280;3145;42.726;23.342;2023-08-07T05:35:57;70603.34;;;-142.70;38.90
6224;BME280;3145;42.726;23.342;2023-08-07T05:38:25;70573.13;;;-142.70;38.50
6224;BME280;3145;42.726;23.342;2023-08-07T05:40:52;70551.00;;;-142.70;38.01
6224;BME280;3145;42.726;23.342;2023-08-07T05:43:19;70528.84;;;-142.70;37.79
6224;BME280;3145;42.726;23.342;2023-08-07T05:45:45;70518.78;;;-142.70;37.09
6224;BME280;3145;42.726;23.342;2023-08-07T05:48:14;70510.72;;;-142.70;37.21
6224;BME280;3145;42.726;23.342;2023-08-07T05:50:41;70482.53;;;-142.70;37.81
6224;BME280;3145;42.726;23.342;2023-08-07T05:53:08;70506.69;;;-142.70;37.14
6224;BME280;3145;42.726;23.342;2023-08-07T05:55:39;70486.56;;;-142.70;36.89
6224;BME280;3145;42.726;23.342;2023-08-07T05:58:06;70462.41;;;-142.70;36.86
6224;BME280;3145;42.726;23.342;2023-08-07T06:00:32;70448.31;;;-142.70;36.60
6224;BME280;3145;42.726;23.342;2023-08-07T06:03:00;70458.38;;;-142.70;36.62
6224;BME280;3145;42.726;23.342;2023-08-07T06:05:26;70486.56;;;-142.70;36.54
6224;BME280;3145;42.726;23.342;2023-08-07T06:07:53;70464.41;;;-142.70;36.41
6224;BME280;3145;42.726;23.342;2023-08-07T06:10:20;70446.31;;;-142.70;36.32
6224;BME280;3145;42.726;23.342;2023-08-07T06:12:48;70448.31;;;-142.70;36.26
6224;BME280;3145;42.726;23.342;2023-08-07T06:15:15;70426.16;;;-142.70;36.43
6224;BME280;3145;42.726;23.342;2023-08-07T06:17:42;70395.97;;;-142.70;36.17
6224;BME280;3145;42.726;23.342;2023-08-07T06:20:09;70418.13;;;-142.70;35.76
6224;BME280;3145;42.726;23.342;2023-08-07T06:22:36;70454.34;;;-142.70;36.26
6224;BME280;3145;42.726;23.342;2023-08-07T06:25:04;70466.44;;;-142.70;36.63
6224;BME280;3145;42.726;23.342;2023-08-07T06:27:32;70446.31;;;-142.70;36.28
6224;BME280;3145;42.726;23.342;2023-08-07T06:30:00;70412.06;;;-142.70;35.93
6224;BME280;3145;42.726;23.342;2023-08-07T06:32:27;70381.88;;;-142.70;35.16
6224;BME280;3145;42.726;23.342;2023-08-07T06:34:53;70345.63;;;-142.70;35.22
6224;BME280;3145;42.726;23.342;2023-08-07T06:37:20;70321.47;;;-142.70;34.70
6224;BME280;3145;42.726;23.342;2023-08-07T06:39:47;70313.44;;;-142.70;34.57
6224;BME280;3145;42.726;23.342;2023-08-07T06:42:13;70293.28;;;-142.70;34.56
6224;BME280;3145;42.726;23.342;2023-08-07T06:44:40;70281.22;;;-142.70;34.05
6224;BME280;3145;42.726;23.342;2023-08-07T06:47:08;70265.13;;;-142.70;33.73
6224;BME280;3145;42.726;23.342;2023-08-07T06:49:35;70253.03;;;-142.70;33.95
6224;BME280;3145;42.726;23.342;2023-08-07T06:52:03;70236.94;;;-142.70;33.40
6224;BME280;3145;42.726;23.342;2023-08-07T06:54:29;70224.84;;;-142.70;32.85
6224;BME280;3145;42.726;23.342;2023-08-07T06:56:56;70240.94;;;-142.70;32.44
6224;BME280;3145;42.726;23.342;2023-08-07T06:59:23;70232.91;;;-142.70;32.26
6224;BME280;3145;42.726;23.342;2023-08-07T07:01:51;70253.03;;;-142.70;32.39
6224;BME280;3145;42.726;23.342;2023-08-07T07:04:19;70224.84;;;-142.70;32.17
6224;BME280;3145;42.726;23.342;2023-08-07T07:06:46;70204.72;;;-142.70;32.04
6224;BME280;3145;42.726;23.342;2023-08-07T07:09:12;70220.81;;;-142.70;32.54
6224;BME280;3145;42.726;23.342;2023-08-07T07:11:42;70253.03;;;-142.70;32.59
6224;BME280;3145;42.726;23.342;2023-08-07T07:14:09;70265.13;;;-142.70;32.12
6224;BME280;3145;42.726;23.342;2023-08-07T07:16:36;70253.03;;;-142.70;32.03
6224;BME280;3145;42.726;23.342;2023-08-07T07:19:03;70228.88;;;-142.70;31.67
6224;BME280;3145;42.726;23.342;2023-08-07T07:21:33;70228.88;;;-142.70;32.16
6224;BME280;3145;42.726;23.342;2023-08-07T07:23:59;70224.84;;;-142.70;32.49
6224;BME280;3145;42.726;23.342;2023-08-07T07:26:26;70240.94;;;-142.70;32.43
6224;BME280;3145;42.726;23.342;2023-08-07T07:28:53;70212.78;;;-142.70;32.03
6224;BME280;3145;42.726;23.342;2023-08-07T07:31:20;70208.75;;;-142.70;31.41
6224;BME280;3145;42.726;23.342;2023-08-07T07:33:47;70188.63;;;-142.70;31.75
6224;BME280;3145;42.726;23.342;2023-08-07T07:36:15;70176.53;;;-142.70;32.21
6224;BME280;3145;42.726;23.342;2023-08-07T07:38:44;70164.44;;;-142.70;31.97
6224;BME280;3145;42.726;23.342;2023-08-07T07:41:11;70146.34;;;-142.70;31.83
6224;BME280;3145;42.726;23.342;2023-08-07T07:43:38;70132.25;;;-142.70;31.97
6224;BME280;3145;42.726;23.342;2023-08-07T07:46:05;70120.16;;;-142.70;31.60
6224;BME280;3145;42.726;23.342;2023-08-07T07:48:31;70114.13;;;-142.70;30.98
6224;BME280;3145;42.726;23.342;2023-08-07T07:50:58;70112.13;;;-142.70;30.04
6224;BME280;3145;42.726;23.342;2023-08-07T07:53:25;70146.34;;;-142.70;29.55
6224;BME280;3145;42.726;23.342;2023-08-07T07:55:54;70130.22;;;-142.70;29.85
6224;BME280;3145;42.726;23.342;2023-08-07T07:58:20;70132.25;;;-142.70;30.53
6224;BME280;3145;42.726;23.342;2023-08-07T08:00:47;70112.13;;;-142.70;30.86
6224;BME280;3145;42.726;23.342;2023-08-07T08:03:14;70154.38;;;-142.70;30.48
6224;BME280;3145;42.726;23.342;2023-08-07T08:05:40;70128.22;;;-142.70;31.23
6224;BME280;3145;42.726;23.342;2023-08-07T08:08:07;70108.09;;;-142.70;30.38
6224;BME280;3145;42.726;23.342;2023-08-07T08:10:34;70108.09;;;-142.70;30.20
6224;BME280;3145;42.726;23.342;2023-08-07T08:13:02;70108.09;;;-142.70;30.32
6224;BME280;3145;42.726;23.342;2023-08-07T08:15:29;70124.19;;;-142.70;30.59
6224;BME280;3145;42.726;23.342;2023-08-07T08:17:56;70122.19;;;-142.70;30.40
6224;BME280;3145;42.726;23.342;2023-08-07T08:20:23;70108.09;;;-142.70;30.21
6224;BME280;3145;42.726;23.342;2023-08-07T08:22:50;70083.94;;;-142.70;29.96
6224;BME280;3145;42.726;23.342;2023-08-07T08:25:17;70083.94;;;-142.70;28.32
6224;BME280;3145;42.726;23.342;2023-08-07T08:27:44;70079.91;;;-142.70;28.97
6224;BME280;3145;42.726;23.342;2023-08-07T08:30:12;70132.25;;;-142.70;29.26
6224;BME280;3145;42.726;23.342;2023-08-07T08:32:39;70172.50;;;-142.70;30.32
6224;BME280;3145;42.726;23.342;2023-08-07T08:35:06;70148.34;;;-142.70;28.50
6224;BME280;3145;42.726;23.342;2023-08-07T08:37:33;70172.50;;;-142.70;29.54
6224;BME280;3145;42.726;23.342;2023-08-07T08:40:00;70144.31;;;-142.70;29.89
6224;BME280;3145;42.726;23.342;2023-08-07T08:42:27;70112.13;;;-142.70;29.53
6224;BME280;3145;42.726;23.342;2023-08-07T08:44:55;70116.13;;;-142.70;30.17
6224;BME280;3145;42.726;23.342;2023-08-07T08:47:25;70083.94;;;-142.70;29.64
6224;BME280;3145;42.726;23.342;2023-08-07T08:49:57;70112.13;;;-142.70;28.46
6224;BME280;3145;42.726;23.342;2023-08-07T08:52:28;70202.69;;;-142.70;29.17
6224;BME280;3145;42.726;23.342;2023-08-07T08:54:55;70218.81;;;-142.70;30.50
6224;BME280;3145;42.726;23.342;2023-08-07T08:57:23;70176.53;;;-142.70;30.29
6224;BME280;3145;42.726;23.342;2023-08-07T08:59:50;70132.25;;;-142.70;29.97
6224;BME280;3145;42.726;23.342;2023-08-07T09:02:17;70128.22;;;-142.70;30.40
6224;BME280;3145;42.726;23.342;2023-08-07T09:04:45;70091.97;;;-142.70;30.06
6224;BME280;3145;42.726;23.342;2023-08-07T09:07:14;70055.75;;;-142.70;29.40
6224;BME280;3145;42.726;23.342;2023-08-07T09:09:42;70035.63;;;-142.70;28.68
6224;BME280;3145;42.726;23.342;2023-08-07T09:12:20;70098.03;;;-142.70;29.24
6224;BME280;3145;42.726;23.342;2023-08-07T09:14:55;70051.72;;;-142.70;29.68
6224;BME280;3145;42.726;23.342;2023-08-07T09:17:23;70035.63;;;-142.70;29.01
6224;BME280;3145;42.726;23.342;2023-08-07T09:19:52;69999.38;;;-142.70;27.98
6224;BME280;3145;42.726;23.342;2023-08-07T09:22:19;70061.78;;;-142.70;28.03
6224;BME280;3145;42.726;23.342;2023-08-07T09:24:46;70079.91;;;-142.70;28.69
6224;BME280;3145;42.726;23.342;2023-08-07T09:27:13;70069.84;;;-142.70;28.91
6224;BME280;3145;42.726;23.342;2023-08-07T09:29:40;70047.69;;;-142.70;28.41
6224;BME280;3145;42.726;23.342;2023-08-07T09:32:07;70037.63;;;-142.70;28.37
6224;BME280;3145;42.726;23.342;2023-08-07T09:34:34;70148.34;;;-142.70;28.94
6224;BME280;3145;42.726;23.342;2023-08-07T09:37:03;70124.19;;;-142.70;29.87
6224;BME280;3145;42.726;23.342;2023-08-07T09:39:30;70089.97;;;-142.70;29.16
6224;BME280;3145;42.726;23.342;2023-08-07T09:41:56;70087.97;;;-142.70;29.56
6224;BME280;3145;42.726;23.342;2023-08-07T09:44:23;70035.63;;;-142.70;28.98
6224;BME280;3145;42.726;23.342;2023-08-07T09:46:50;70021.53;;;-142.70;28.85
6224;BME280;3145;42.726;23.342;2023-08-07T09:49:17;70011.47;;;-142.70;28.40
6224;BME280;3145;42.726;23.342;2023-08-07T09:51:46;69987.31;;;-142.70;28.50
6224;BME280;3145;42.726;23.342;2023-08-07T09:54:14;69979.25;;;-142.70;28.00
6224;BME280;3145;42.726;23.342;2023-08-07T09:56:41;69989.31;;;-142.70;28.93
6224;BME280;3145;42.726;23.342;2023-08-07T09:59:08;69967.19;;;-142.70;29.37
6224;BME280;3145;42.726;23.342;2023-08-07T10:01:36;69975.22;;;-142.70;28.26
6224;BME280;3145;42.726;23.342;2023-08-07T10:04:05;69987.31;;;-142.70;29.24
6224;BME280;3145;42.726;23.342;2023-08-07T10:06:32;69934.97;;;-142.70;28.53
6224;BME280;3145;42.726;23.342;2023-08-07T10:08:59;69914.84;;;-142.70;27.85
6224;BME280;3145;42.726;23.342;2023-08-07T10:11:29;69934.97;;;-142.70;28.45
6224;BME280;3145;42.726;23.342;2023-08-07T10:13:57;69896.72;;;-142.70;27.25
6224;BME280;3145;42.726;23.342;2023-08-07T10:16:24;69870.56;;;-142.70;28.13
6224;BME280;3145;42.726;23.342;2023-08-07T10:18:52;69888.66;;;-142.70;28.05
6224;BME280;3145;42.726;23.342;2023-08-07T10:21:19;69886.66;;;-142.70;27.86
6224;BME280;3145;42.726;23.342;2023-08-07T10:23:47;69904.78;;;-142.70;28.12
6224;BME280;3145;42.726;23.342;2023-08-07T10:26:18;69969.19;;;-142.70;28.04
6224;BME280;3145;42.726;23.342;2023-08-07T10:28:50;69936.97;;;-142.70;28.88
6224;BME280;3145;42.726;23.342;2023-08-07T10:31:19;69939.00;;;-142.70;28.79
6224;BME280;3145;42.726;23.342;2023-08-07T10:33:48;69922.88;;;-142.70;28.26
6224;BME280;3145;42.726;23.342;2023-08-07T10:36:16;69876.59;;;-142.70;28.21
6224;BME280;3145;42.726;23.342;2023-08-07T10:38:43;69854.44;;;-142.70;27.97
6224;BME280;3145;42.726;23.342;2023-08-07T10:41:10;69886.66;;;-142.70;27.58
6224;BME280;3145;42.726;23.342;2023-08-07T10:43:39;69842.38;;;-142.70;28.35
6224;BME280;3145;42.726;23.342;2023-08-07T10:46:09;69824.25;;;-142.70;28.20
6224;BME280;3145;42.726;23.342;2023-08-07T10:48:41;69850.41;;;-142.70;27.90
6224;BME280;3145;42.726;23.342;2023-08-07T10:51:12;69836.34;;;-142.70;27.80
6224;BME280;3145;42.726;23.342;2023-08-07T10:53:41;69824.25;;;-142.70;27.17
6224;BME280;3145;42.726;23.342;2023-08-07T10:56:10;69842.38;;;-142.70;27.13
6224;BME280;3145;42.726;23.342;2023-08-07T10:58:38;69906.78;;;-142.70;28.10
6224;BME280;3145;42.726;23.342;2023-08-07T11:01:17;69890.69;;;-142.70;27.33
6224;BME280;3145;42.726;23.342;2023-08-07T11:03:44;69844.38;;;-142.70;27.91
6224;BME280;3145;42.726;23.342;2023-08-07T11:06:12;69850.41;;;-142.70;28.17
6224;BME280;3145;42.726;23.342;2023-08-07T11:08:39;69830.28;;;-142.70;27.35
6224;BME280;3145;42.726;23.342;2023-08-07T11:11:06;69814.19;;;-142.70;27.92
6224;BME280;3145;42.726;23.342;2023-08-07T11:13:33;69822.25;;;-142.70;28.00
6224;BME280;3145;42.726;23.342;2023-08-07T11:16:00;69870.56;;;-142.70;28.31
6224;BME280;3145;42.726;23.342;2023-08-07T11:18:28;69826.28;;;-142.70;28.64
6224;BME280;3145;42.726;23.342;2023-08-07T11:20:56;69806.13;;;-142.70;28.43
6224;BME280;3145;42.726;23.342;2023-08-07T11:23:24;69822.25;;;-142.70;28.29
6224;BME280;3145;42.726;23.342;2023-08-07T11:25:51;69860.50;;;-142.70;28.16
6224;BME280;3145;42.726;23.342;2023-08-07T11:28:18;69904.78;;;-142.70;28.16
6224;BME280;3145;42.726;23.342;2023-08-07T11:30:48;69850.41;;;-142.70;29.21
6224;BME280;3145;42.726;23.342;2023-08-07T11:33:15;69820.22;;;-142.70;28.71
6224;BME280;3145;42.726;23.342;2023-08-07T11:35:43;69852.44;;;-142.70;27.93
6224;BME280;3145;42.726;23.342;2023-08-07T11:38:10;69818.22;;;-142.70;28.34
6224;BME280;3145;42.726;23.342;2023-08-07T11:40:37;69826.28;;;-142.70;28.32
6224;BME280;3145;42.726;23.342;2023-08-07T11:43:03;69838.34;;;-142.70;28.13
6224;BME280;3145;42.726;23.342;2023-08-07T11:45:30;69862.50;;;-142.70;28.49
6224;BME280;3145;42.726;23.342;2023-08-07T11:47:57;69880.63;;;-142.70;28.71
6224;BME280;3145;42.726;23.342;2023-08-07T11:50:24;69876.59;;;-142.70;29.17
6224;BME280;3145;42.726;23.342;2023-08-07T11:52:53;69874.56;;;-142.70;29.49
6224;BME280;3145;42.726;23.342;2023-08-07T11:55:20;69874.56;;;-142.70;29.51
6224;BME280;3145;42.726;23.342;2023-08-07T11:57:46;69884.66;;;-142.70;29.24
6224;BME280;3145;42.726;23.342;2023-08-07T12:00:14;69898.72;;;-142.70;29.06
6224;BME280;3145;42.726;23.342;2023-08-07T12:02:42;69910.81;;;-142.70;30.15
6224;BME280;3145;42.726;23.342;2023-08-07T12:05:10;69918.88;;;-142.70;29.47
6224;BME280;3145;42.726;23.342;2023-08-07T12:07:38;69922.88;;;-142.70;29.75
6224;BME280;3145;42.726;23.342;2023-08-07T12:10:07;69904.78;;;-142.70;29.70
6224;BME280;3145;42.726;23.342;2023-08-07T12:12:36;69860.50;;;-142.70;29.47
6224;BME280;3145;42.726;23.342;2023-08-07T12:15:03;69862.50;;;-142.70;28.81
6224;BME280;3145;42.726;23.342;2023-08-07T12:17:31;69862.50;;;-142.70;29.58
6224;BME280;3145;42.726;23.342;2023-08-07T12:19:58;69866.53;;;-142.70;29.39
6224;BME280;3145;42.726;23.342;2023-08-07T12:22:27;69862.50;;;-142.70;29.57
6224;BME280;3145;42.726;23.342;2023-08-07T12:24:54;69874.56;;;-142.70;29.39
6224;BME280;3145;42.726;23.342;2023-08-07T12:27:22;69914.84;;;-142.70;28.93
6224;BME280;3145;42.726;23.342;2023-08-07T12:29:49;69959.13;;;-142.70;29.54
6224;BME280;3145;42.726;23.342;2023-08-07T12:32:15;69943.03;;;-142.70;30.76
6224;BME280;3145;42.726;23.342;2023-08-07T12:34:42;69934.97;;;-142.70;30.18
6224;BME280;3145;42.726;23.342;2023-08-07T12:37:09;69922.88;;;-142.70;30.17
6224;BME280;3145;42.726;23.342;2023-08-07T12:39:35;69939.00;;;-142.70;30.62
6224;BME280;3145;42.726;23.342;2023-08-07T12:42:02;69926.91;;;-142.70;30.97
6224;BME280;3145;42.726;23.342;2023-08-07T12:44:31;69900.75;;;-142.70;30.73
6224;BME280;3145;42.726;23.342;2023-08-07T12:46:58;69858.47;;;-142.70;30.44
6224;BME280;3145;42.726;23.342;2023-08-07T12:49:25;69838.34;;;-142.70;30.42
6224;BME280;3145;42.726;23.342;2023-08-07T12:51:52;69814.19;;;-142.70;30.43